Time;durP1;ratioP1;P1;durP2;ratioP2;P2;SDS_P1;SDS_P2;PMS_P1;PMS_P2;Temp;Humidity;BMP_temperature;BMP_pressure;BME280_temperature;BME280_humidity;BME280_pressure;Samples;Min_cycle;Max_cycle;Signal;HPM_P1;HPM_P2
2023/06/28 00:00:42;;;;;;;4.93;3.60;;;13.90;99.90;;;;;;5048593;28;20097;-85
2023/06/28 00:03:10;;;;;;;6.60;3.30;;;13.80;99.90;;;;;;5065872;28;20052;-84
2023/06/28 00:05:37;;;;;;;6.43;3.47;;;13.80;99.90;;;;;;5063618;28;20127;-85
2023/06/28 00:08:02;;;;;;;5.55;3.50;;;13.80;99.90;;;;;;5065366;28;20137;-85
2023/06/28 00:10:28;;;;;;;7.35;3.42;;;13.80;99.90;;;;;;5044160;28;20469;-84
2023/06/28 00:12:53;;;;;;;5.70;3.28;;;13.80;99.90;;;;;;5065977;28;20044;-84
2023/06/28 00:15:19;;;;;;;6.43;3.40;;;13.80;99.90;;;;;;5064058;28;20037;-84
2023/06/28 00:17:45;;;;;;;5.63;3.35;;;13.80;99.90;;;;;;5067509;28;20101;-84
2023/06/28 00:20:11;;;;;;;4.63;3.45;;;13.80;99.90;;;;;;5047772;28;20330;-85
2023/06/28 00:22:39;;;;;;;6.10;3.35;;;13.70;99.90;;;;;;5049346;28;20048;-85
2023/06/28 00:25:05;;;;;;;7.88;3.20;;;13.80;99.90;;;;;;5063512;28;20056;-85
2023/06/28 00:27:31;;;;;;;6.47;3.33;;;13.70;99.90;;;;;;5065943;28;20127;-85
2023/06/28 00:29:57;;;;;;;6.38;3.22;;;13.80;99.90;;;;;;5064435;28;20466;-85
2023/06/28 00:32:24;;;;;;;8.00;3.38;;;13.70;99.90;;;;;;5065515;28;20588;-85
2023/06/28 00:34:50;;;;;;;8.55;3.10;;;13.80;99.90;;;;;;5065504;28;20052;-85
2023/06/28 00:37:16;;;;;;;8.00;3.40;;;13.80;99.90;;;;;;5064942;28;20113;-85
2023/06/28 00:39:42;;;;;;;7.05;3.50;;;13.80;99.90;;;;;;5057514;28;20382;-85
2023/06/28 00:42:07;;;;;;;8.25;3.80;;;13.80;99.90;;;;;;5061376;28;20045;-85
2023/06/28 00:44:34;;;;;;;6.45;3.35;;;13.80;99.90;;;;;;5065522;28;20047;-85
2023/06/28 00:47:01;;;;;;;11.93;3.85;;;13.70;99.90;;;;;;5068253;28;20040;-85
2023/06/28 00:49:30;;;;;;;6.35;3.60;;;13.80;99.90;;;;;;5068992;28;20102;-85
2023/06/28 00:51:56;;;;;;;5.82;2.90;;;13.70;99.90;;;;;;5052169;28;20097;-84
2023/06/28 00:54:23;;;;;;;4.38;2.88;;;13.70;99.90;;;;;;5052515;28;20048;-85
2023/06/28 00:56:50;;;;;;;4.25;3.00;;;13.70;99.90;;;;;;5069828;28;20484;-85
2023/06/28 00:59:16;;;;;;;5.40;3.30;;;13.70;99.90;;;;;;5068142;28;20090;-85
2023/06/28 01:01:42;;;;;;;5.72;3.35;;;13.70;99.90;;;;;;5052823;28;20127;-86
2023/06/28 01:04:08;;;;;;;5.47;3.47;;;13.70;99.90;;;;;;5068447;28;20040;-86
2023/06/28 01:06:37;;;;;;;7.65;3.30;;;13.60;99.90;;;;;;5071336;28;20048;-85
2023/06/28 01:09:04;;;;;;;6.07;2.92;;;13.60;99.90;;;;;;5065373;28;20049;-85
2023/06/28 01:11:31;;;;;;;8.10;3.80;;;13.60;99.90;;;;;;5067756;28;20044;-85
2023/06/28 01:13:58;;;;;;;8.52;3.33;;;13.60;99.90;;;;;;5048559;28;20477;-86
2023/06/28 01:16:24;;;;;;;7.05;3.35;;;13.50;99.90;;;;;;5068789;28;20037;-85
2023/06/28 01:18:50;;;;;;;5.68;3.75;;;13.50;99.90;;;;;;5068874;28;20049;-86
2023/06/28 01:21:22;;;;;;;6.60;3.35;;;13.50;99.90;;;;;;5070069;28;20049;-85
2023/06/28 01:23:48;;;;;;;11.65;3.67;;;13.50;99.90;;;;;;5067363;28;20049;-85
2023/06/28 01:26:16;;;;;;;5.88;3.55;;;13.50;99.90;;;;;;5068537;28;20050;-85
2023/06/28 01:28:43;;;;;;;5.70;3.72;;;13.40;99.90;;;;;;5068353;28;20040;-85
2023/06/28 01:31:09;;;;;;;7.50;3.72;;;13.50;99.90;;;;;;5050198;28;20492;-85
2023/06/28 01:33:34;;;;;;;6.32;3.78;;;13.40;99.90;;;;;;5051482;28;20063;-85
2023/06/28 01:36:00;;;;;;;8.18;3.92;;;13.40;99.90;;;;;;5063449;28;20044;-86
2023/06/28 01:38:27;;;;;;;5.75;4.10;;;13.40;99.90;;;;;;5047911;28;20094;-85
2023/06/28 01:40:53;;;;;;;5.00;3.58;;;13.40;99.90;;;;;;5069687;28;20048;-86
2023/06/28 01:43:20;;;;;;;10.35;4.28;;;13.30;99.90;;;;;;5047237;28;20044;-86
2023/06/28 01:45:46;;;;;;;6.07;3.67;;;13.30;99.90;;;;;;5061635;28;20041;-85
2023/06/28 01:48:13;;;;;;;6.75;4.13;;;13.30;99.90;;;;;;5066766;28;20420;-85
2023/06/28 01:50:38;;;;;;;5.13;3.80;;;13.30;99.90;;;;;;5068006;28;20392;-86
2023/06/28 01:53:07;;;;;;;6.68;4.13;;;13.20;99.90;;;;;;5067989;28;20129;-86
2023/06/28 01:55:32;;;;;;;6.97;3.88;;;13.20;99.90;;;;;;5066237;28;20059;-85
2023/06/28 01:57:58;;;;;;;8.27;4.22;;;13.20;99.90;;;;;;5068138;28;20458;-86
2023/06/28 02:00:24;;;;;;;5.93;3.75;;;13.20;99.90;;;;;;5068737;28;20519;-86
2023/06/28 02:02:50;;;;;;;5.18;3.85;;;13.40;99.90;;;;;;5068728;28;20518;-86
2023/06/28 02:05:16;;;;;;;5.45;4.18;;;13.20;99.90;;;;;;5067305;28;20540;-86
2023/06/28 02:07:42;;;;;;;6.53;4.28;;;13.20;99.90;;;;;;5061598;28;20049;-85
2023/06/28 02:10:10;;;;;;;10.18;4.90;;;13.50;99.90;;;;;;5068156;28;20047;-85
2023/06/28 02:12:36;;;;;;;9.00;4.45;;;13.30;99.90;;;;;;5065073;28;20151;-86
2023/06/28 02:15:02;;;;;;;6.80;4.45;;;13.20;99.90;;;;;;5068297;28;20086;-86
2023/06/28 02:17:31;;;;;;;6.70;4.40;;;13.20;99.90;;;;;;5066939;28;20086;-86
2023/06/28 02:19:57;;;;;;;10.13;5.00;;;13.50;99.90;;;;;;5051140;28;20481;-86
2023/06/28 02:22:22;;;;;;;7.05;4.78;;;13.20;99.90;;;;;;5068140;28;20131;-86
2023/06/28 02:24:48;;;;;;;7.93;4.25;;;13.20;99.90;;;;;;5066503;28;20071;-86
2023/06/28 02:27:14;;;;;;;8.35;4.45;;;13.10;99.90;;;;;;5067619;28;20037;-86
2023/06/28 02:29:40;;;;;;;7.82;5.05;;;13.30;99.90;;;;;;5068228;28;20388;-86
2023/06/28 02:32:06;;;;;;;11.07;5.75;;;13.30;99.90;;;;;;5067362;28;20496;-86
2023/06/28 02:34:32;;;;;;;9.35;4.85;;;13.30;99.90;;;;;;5066989;28;20416;-86
2023/06/28 02:36:58;;;;;;;7.72;5.25;;;13.30;99.90;;;;;;5068121;28;20036;-86
2023/06/28 02:39:24;;;;;;;8.23;5.15;;;13.30;99.90;;;;;;5067449;28;20100;-86
2023/06/28 02:41:50;;;;;;;7.80;4.95;;;13.30;99.90;;;;;;5051853;28;20500;-87
2023/06/28 02:44:15;;;;;;;12.32;6.05;;;13.40;99.90;;;;;;5067653;28;20541;-87
2023/06/28 02:46:41;;;;;;;6.40;4.82;;;13.40;99.90;;;;;;5067668;28;20055;-86
2023/06/28 02:49:07;;;;;;;6.40;5.47;;;13.40;99.90;;;;;;5064324;28;20152;-86
2023/06/28 02:51:33;;;;;;;7.50;4.88;;;13.40;99.90;;;;;;5066928;28;20075;-86
2023/06/28 02:53:59;;;;;;;8.90;4.97;;;13.60;99.90;;;;;;5063173;28;20052;-86
2023/06/28 02:56:25;;;;;;;7.40;4.82;;;13.40;99.90;;;;;;5033927;28;20779;-86
2023/06/28 02:58:51;;;;;;;9.50;5.18;;;13.50;99.90;;;;;;5056945;28;20048;-87
2023/06/28 03:01:17;;;;;;;6.88;5.50;;;13.50;99.90;;;;;;5066507;28;20082;-87
2023/06/28 03:03:43;;;;;;;6.75;5.32;;;13.90;99.90;;;;;;5066412;28;20411;-86
2023/06/28 03:06:09;;;;;;;7.88;5.38;;;13.60;99.90;;;;;;5045927;28;20041;-86
2023/06/28 03:08:34;;;;;;;9.88;5.63;;;13.60;99.90;;;;;;5062360;28;20056;-87
2023/06/28 03:11:00;;;;;;;9.38;5.57;;;13.70;99.90;;;;;;5066657;28;20075;-88
2023/06/28 03:13:26;;;;;;;7.97;5.18;;;13.60;99.90;;;;;;5046071;28;20045;-87
2023/06/28 03:15:51;;;;;;;6.60;4.93;;;13.60;99.90;;;;;;5061854;28;20047;-87
2023/06/28 03:18:17;;;;;;;6.57;5.47;;;13.70;99.90;;;;;;5066930;28;20032;-88
2023/06/28 03:20:43;;;;;;;9.40;5.82;;;13.70;99.90;;;;;;5049758;28;20076;-87
2023/06/28 03:23:08;;;;;;;9.05;6.00;;;13.70;99.90;;;;;;5066570;28;20153;-88
2023/06/28 03:25:34;;;;;;;10.38;5.70;;;13.70;99.90;;;;;;5066858;28;20044;-87
2023/06/28 03:28:00;;;;;;;9.30;6.20;;;13.70;99.90;;;;;;5067794;28;20131;-87
2023/06/28 03:30:25;;;;;;;9.15;5.85;;;13.80;99.90;;;;;;5050051;28;20076;-87
2023/06/28 03:32:51;;;;;;;8.23;5.00;;;13.80;99.90;;;;;;5067942;28;20106;-87
2023/06/28 03:35:17;;;;;;;9.07;6.15;;;13.90;99.90;;;;;;5065071;28;20611;-88
2023/06/28 03:37:53;;;;;;;8.50;5.22;;;13.90;99.90;;;;;;5068119;28;20149;-88
2023/06/28 03:40:19;;;;;;;8.32;5.68;;;13.90;99.90;;;;;;5046868;28;20040;-88
2023/06/28 03:42:45;;;;;;;7.03;5.90;;;13.90;99.90;;;;;;5067676;28;20051;-88
2023/06/28 03:45:10;;;;;;;8.80;5.80;;;13.90;99.90;;;;;;5066747;28;20036;-88
2023/06/28 03:47:39;;;;;;;9.35;5.93;;;13.90;99.90;;;;;;5067989;28;20675;-88
2023/06/28 03:50:06;;;;;;;9.55;5.85;;;13.90;99.90;;;;;;5063830;28;20048;-88
2023/06/28 03:52:31;;;;;;;6.25;5.57;;;13.90;99.90;;;;;;5064482;28;20059;-87
2023/06/28 03:55:01;;;;;;;10.05;6.60;;;14.00;99.90;;;;;;5067505;28;20044;-87
2023/06/28 03:57:27;;;;;;;11.02;5.78;;;14.00;99.90;;;;;;5050969;28;20056;-86
2023/06/28 03:59:52;;;;;;;9.73;5.80;;;14.30;99.90;;;;;;5064015;28;20122;-88
2023/06/28 04:02:18;;;;;;;8.20;5.80;;;14.00;99.90;;;;;;5067770;28;20131;-87
2023/06/28 04:04:47;;;;;;;8.88;6.18;;;14.10;99.90;;;;;;5065151;28;20040;-88
2023/06/28 04:07:13;;;;;;;8.73;5.63;;;14.00;99.90;;;;;;5050477;28;20492;-88
2023/06/28 04:09:39;;;;;;;7.32;5.70;;;14.10;99.90;;;;;;5067963;28;20057;-88
2023/06/28 04:12:05;;;;;;;8.55;5.70;;;14.10;99.90;;;;;;5065996;28;20048;-88
2023/06/28 04:14:31;;;;;;;7.65;5.70;;;14.10;99.90;;;;;;5045392;28;20048;-87
2023/06/28 04:16:56;;;;;;;8.85;5.40;;;14.20;99.90;;;;;;5058432;28;20129;-88
2023/06/28 04:19:22;;;;;;;10.88;5.70;;;14.20;99.90;;;;;;5050176;28;20037;-87
2023/06/28 04:21:48;;;;;;;9.15;6.03;;;14.20;99.90;;;;;;5066967;28;20877;-88
2023/06/28 04:24:13;;;;;;;11.60;5.65;;;14.20;99.90;;;;;;5067724;28;20364;-88
2023/06/28 04:26:39;;;;;;;6.75;5.28;;;14.00;99.90;;;;;;5051667;28;20049;-89
2023/06/28 04:29:04;;;;;;;8.73;5.30;;;14.30;99.90;;;;;;5068413;28;20048;-88
2023/06/28 04:31:30;;;;;;;8.38;5.95;;;14.30;99.90;;;;;;5051733;28;20158;-90
2023/06/28 04:34:00;;;;;;;5.93;5.38;;;14.30;99.90;;;;;;5052921;28;20151;-89
2023/06/28 04:36:26;;;;;;;7.45;5.75;;;14.30;99.90;;;;;;5069934;28;20123;-90
2023/06/28 04:38:54;;;;;;;8.13;6.13;;;14.40;99.90;;;;;;5053578;28;20552;-90
2023/06/28 04:41:25;;;;;;;8.90;5.55;;;14.70;99.90;;;;;;5052398;28;20683;-88
2023/06/28 04:43:56;;;;;;;6.35;5.50;;;14.40;99.90;;;;;;5052755;28;20044;-88
2023/06/28 04:46:22;;;;;;;9.52;5.35;;;14.40;99.90;;;;;;5052837;28;20179;-90
2023/06/28 04:48:50;;;;;;;8.05;5.10;;;14.60;99.90;;;;;;5069938;28;20059;-90
2023/06/28 04:51:18;;;;;;;10.05;5.63;;;14.40;99.90;;;;;;5049491;28;20125;-91
2023/06/28 04:53:46;;;;;;;8.45;5.20;;;14.40;99.90;;;;;;5050930;28;20070;-89
2023/06/28 04:56:17;;;;;;;9.15;5.60;;;14.50;99.90;;;;;;5053424;28;20052;-90
2023/06/28 04:58:44;;;;;;;8.07;5.53;;;14.70;99.90;;;;;;5054231;28;20349;-89
2023/06/28 05:01:09;;;;;;;7.85;5.72;;;14.40;99.90;;;;;;5054476;28;20051;-90
2023/06/28 05:03:40;;;;;;;7.43;5.10;;;14.50;99.90;;;;;;5043747;28;20049;-90
2023/06/28 05:06:06;;;;;;;8.82;5.40;;;14.70;99.90;;;;;;5048926;28;20042;-89
2023/06/28 05:08:32;;;;;;;5.65;5.13;;;14.60;99.90;;;;;;5050339;28;20037;-90
2023/06/28 05:10:59;;;;;;;7.22;4.28;;;14.50;99.90;;;;;;5045061;28;20425;-89
2023/06/28 05:13:25;;;;;;;5.82;3.72;;;14.70;99.90;;;;;;5046090;28;20091;-89
2023/06/28 05:15:51;;;;;;;5.78;4.55;;;14.60;99.90;;;;;;5042255;28;20052;-89
2023/06/28 05:18:18;;;;;;;5.80;4.30;;;15.00;99.90;;;;;;5049465;28;20520;-87
2023/06/28 05:20:47;;;;;;;4.70;4.03;;;14.80;99.90;;;;;;5052636;28;20078;-89
2023/06/28 05:23:24;;;;;;;4.95;3.83;;;14.60;99.90;;;;;;5054354;28;20066;-90
2023/06/28 05:25:53;;;;;;;4.47;3.67;;;14.70;99.90;;;;;;5043138;28;20106;-90
2023/06/28 05:28:19;;;;;;;6.05;3.78;;;14.70;99.90;;;;;;5053269;28;20132;-90
2023/06/28 05:30:49;;;;;;;4.88;4.30;;;14.80;99.90;;;;;;5071223;28;20131;-89
2023/06/28 05:33:16;;;;;;;5.50;4.20;;;14.80;99.90;;;;;;5055824;28;20095;-88
2023/06/28 05:35:42;;;;;;;5.28;4.15;;;14.80;99.90;;;;;;5055607;28;20048;-89
2023/06/28 05:38:08;;;;;;;5.25;4.00;;;14.90;99.90;;;;;;5055895;28;20040;-88
2023/06/28 05:40:35;;;;;;;5.43;4.00;;;14.90;99.90;;;;;;5072465;28;20088;-89
2023/06/28 05:43:01;;;;;;;7.03;4.70;;;15.00;99.90;;;;;;5056078;28;20124;-89
2023/06/28 05:45:29;;;;;;;4.28;3.95;;;15.00;99.90;;;;;;5056763;28;20516;-88
2023/06/28 05:47:57;;;;;;;5.13;3.67;;;15.10;99.90;;;;;;5056824;28;20079;-89
2023/06/28 05:50:23;;;;;;;4.45;4.00;;;15.10;99.90;;;;;;5071251;28;20098;-88
2023/06/28 05:52:52;;;;;;;6.15;4.07;;;15.60;99.90;;;;;;5071971;28;20040;-91
2023/06/28 05:55:18;;;;;;;5.20;3.50;;;15.30;99.90;;;;;;5055240;28;20557;-88
2023/06/28 05:57:45;;;;;;;6.75;3.80;;;15.40;99.90;;;;;;5055215;28;20131;-91
2023/06/28 06:00:12;;;;;;;4.70;3.80;;;15.40;99.90;;;;;;5056419;28;20045;-91
2023/06/28 06:02:38;;;;;;;5.07;3.53;;;15.50;99.90;;;;;;5055964;28;20519;-88
2023/06/28 06:05:04;;;;;;;6.78;4.28;;;15.80;99.90;;;;;;5070550;28;20048;-88
2023/06/28 06:07:30;;;;;;;5.63;4.10;;;15.60;99.90;;;;;;5070917;28;20560;-85
2023/06/28 06:09:56;;;;;;;6.53;3.80;;;15.70;99.90;;;;;;5069428;28;20131;-86
2023/06/28 06:12:23;;;;;;;5.80;4.00;;;15.90;99.90;;;;;;5069958;28;20045;-83
2023/06/28 06:14:50;;;;;;;4.88;3.47;;;15.90;99.90;;;;;;5069742;28;20040;-85
2023/06/28 06:17:19;;;;;;;7.18;3.75;;;15.90;99.90;;;;;;5051016;28;20074;-84
2023/06/28 06:19:44;;;;;;;6.20;3.70;;;16.00;99.90;;;;;;5067541;28;20045;-84
2023/06/28 06:22:10;;;;;;;9.10;4.10;;;16.20;99.90;;;;;;5051272;28;20040;-86
2023/06/28 06:24:36;;;;;;;6.35;4.22;;;16.10;99.90;;;;;;5058023;28;20427;-86
2023/06/28 06:27:02;;;;;;;6.47;4.40;;;16.10;99.90;;;;;;5065100;28;20052;-85
2023/06/28 06:29:28;;;;;;;5.63;4.55;;;16.10;99.90;;;;;;5051375;28;20044;-85
2023/06/28 06:31:53;;;;;;;7.50;4.50;;;16.20;99.90;;;;;;5067243;28;20045;-86
2023/06/28 06:34:19;;;;;;;7.07;4.00;;;16.20;99.90;;;;;;5050978;28;20063;-85
2023/06/28 06:36:45;;;;;;;9.60;4.78;;;16.40;99.90;;;;;;5051220;28;20961;-84
2023/06/28 06:39:10;;;;;;;9.15;4.78;;;16.20;99.90;;;;;;5065554;28;20044;-85
2023/06/28 06:41:36;;;;;;;6.32;4.60;;;16.40;99.90;;;;;;5067045;28;20492;-85
2023/06/28 06:44:01;;;;;;;9.50;5.00;;;16.20;99.90;;;;;;5067881;28;20058;-87
2023/06/28 06:46:27;;;;;;;7.85;4.60;;;16.30;99.90;;;;;;5067602;28;20044;-83
2023/06/28 06:48:53;;;;;;;6.97;4.40;;;16.70;99.90;;;;;;5067873;28;20048;-83
2023/06/28 06:51:19;;;;;;;6.95;4.38;;;16.60;99.90;;;;;;5054823;28;20049;-90
2023/06/28 06:53:45;;;;;;;9.93;4.72;;;16.30;99.90;;;;;;5070836;28;20404;-88
2023/06/28 06:56:11;;;;;;;7.00;4.70;;;16.30;99.90;;;;;;5053076;28;20044;-92
2023/06/28 06:58:36;;;;;;;10.02;4.70;;;16.40;99.90;;;;;;5070762;28;20040;-85
2023/06/28 07:01:02;;;;;;;8.63;4.72;;;16.40;99.90;;;;;;5071947;28;20417;-87
2023/06/28 07:03:28;;;;;;;6.70;4.72;;;16.20;99.90;;;;;;5054215;28;20095;-86
2023/06/28 07:05:53;;;;;;;8.40;5.18;;;16.40;99.90;;;;;;5052027;28;20041;-89
2023/06/28 07:08:19;;;;;;;9.23;4.50;;;16.50;99.90;;;;;;5070877;28;20036;-91
2023/06/28 07:10:45;;;;;;;7.80;4.53;;;16.50;99.90;;;;;;5052560;28;20044;-88
2023/06/28 07:13:12;;;;;;;10.20;4.65;;;16.60;99.90;;;;;;5069493;28;20048;-88
2023/06/28 07:15:40;;;;;;;7.85;4.70;;;16.80;99.90;;;;;;5053103;28;20492;-90
2023/06/28 07:18:06;;;;;;;7.30;4.57;;;16.50;99.90;;;;;;5053338;28;20044;-90
2023/06/28 07:20:31;;;;;;;7.60;4.80;;;16.50;99.90;;;;;;5070932;28;20151;-91
2023/06/28 07:22:57;;;;;;;10.10;4.97;;;16.40;99.90;;;;;;5056149;28;20052;-91
2023/06/28 07:25:22;;;;;;;9.55;4.85;;;16.40;99.90;;;;;;5056232;28;20040;-84
2023/06/28 07:27:48;;;;;;;8.55;5.10;;;16.40;99.90;;;;;;5066881;28;20054;-83
2023/06/28 07:30:14;;;;;;;7.18;4.72;;;16.50;99.90;;;;;;5066413;28;20044;-83
2023/06/28 07:32:39;;;;;;;10.02;4.43;;;16.50;99.90;;;;;;5049574;28;20352;-84
2023/06/28 07:35:05;;;;;;;6.45;5.32;;;16.60;99.90;;;;;;5067625;28;20467;-84
2023/06/28 07:37:31;;;;;;;8.38;4.85;;;16.60;99.90;;;;;;5067732;28;20044;-84
2023/06/28 07:39:59;;;;;;;10.05;4.97;;;16.60;99.90;;;;;;5066594;28;20041;-84
2023/06/28 07:42:26;;;;;;;6.70;4.72;;;16.60;99.90;;;;;;5067382;28;20084;-85
2023/06/28 07:44:52;;;;;;;7.07;5.07;;;16.70;99.90;;;;;;5050142;28;20079;-85
2023/06/28 07:47:18;;;;;;;10.10;5.82;;;16.80;99.90;;;;;;5066226;28;20079;-84
2023/06/28 07:49:44;;;;;;;7.78;4.95;;;16.80;99.90;;;;;;5048870;28;20124;-84
2023/06/28 07:52:10;;;;;;;10.15;5.55;;;16.80;99.90;;;;;;5066203;28;20084;-86
2023/06/28 07:54:36;;;;;;;9.10;5.18;;;16.80;99.90;;;;;;5066265;28;20063;-86
2023/06/28 07:57:02;;;;;;;10.13;5.38;;;17.00;99.90;;;;;;5049802;28;20125;-81
2023/06/28 07:59:28;;;;;;;9.05;5.47;;;16.70;99.90;;;;;;5066415;28;20072;-84
2023/06/28 08:01:53;;;;;;;9.85;5.22;;;16.60;99.90;;;;;;5068038;28;20048;-84
2023/06/28 08:04:20;;;;;;;9.98;6.05;;;16.90;99.90;;;;;;5065503;28;20595;-84
2023/06/28 08:06:46;;;;;;;8.52;5.15;;;16.50;99.90;;;;;;5083658;28;20052;-83
2023/06/28 08:09:13;;;;;;;10.48;5.82;;;16.40;99.90;;;;;;5066273;28;20125;-83
2023/06/28 08:11:39;;;;;;;8.52;5.30;;;16.50;99.90;;;;;;5062860;28;20170;-83
2023/06/28 08:14:05;;;;;;;7.80;5.28;;;16.50;99.90;;;;;;5061197;28;20619;-83
2023/06/28 08:16:31;;;;;;;8.93;6.03;;;16.60;99.90;;;;;;5048571;28;20068;-84
2023/06/28 08:18:57;;;;;;;10.82;5.63;;;16.60;99.90;;;;;;5064630;28;20043;-84
2023/06/28 08:21:23;;;;;;;7.88;5.43;;;16.70;99.90;;;;;;5063759;28;20032;-84
2023/06/28 08:23:49;;;;;;;9.05;5.93;;;16.70;99.90;;;;;;5065353;28;20045;-83
2023/06/28 08:26:15;;;;;;;9.52;5.55;;;16.70;99.90;;;;;;5067347;28;20396;-83
2023/06/28 08:28:41;;;;;;;8.02;5.68;;;16.70;99.90;;;;;;5066875;28;20055;-84
2023/06/28 08:31:07;;;;;;;10.48;6.28;;;16.70;99.90;;;;;;5065885;28;20399;-84
2023/06/28 08:33:33;;;;;;;12.95;6.82;;;16.80;99.90;;;;;;5066261;28;20513;-84
2023/06/28 08:35:58;;;;;;;8.43;6.00;;;16.80;99.90;;;;;;5063638;28;20147;-84
2023/06/28 08:38:24;;;;;;;9.85;6.25;;;16.80;99.90;;;;;;5048974;28;20060;-85
2023/06/28 08:40:51;;;;;;;10.73;6.30;;;16.80;99.90;;;;;;5049045;28;20037;-84
2023/06/28 08:43:19;;;;;;;8.95;6.35;;;17.00;99.90;;;;;;5065790;28;20064;-84
2023/06/28 08:45:45;;;;;;;9.18;6.05;;;16.80;99.90;;;;;;5065448;28;20093;-83
2023/06/28 08:48:14;;;;;;;10.88;6.10;;;16.90;99.90;;;;;;5065289;28;20051;-83
2023/06/28 08:50:41;;;;;;;8.50;6.32;;;17.00;99.90;;;;;;5066223;28;20048;-83
2023/06/28 08:53:16;;;;;;;9.65;6.30;;;17.10;99.90;;;;;;5049662;28;20059;-85
2023/06/28 08:55:43;;;;;;;7.10;6.00;;;17.50;99.90;;;;;;5049123;28;20049;-86
2023/06/28 08:58:11;;;;;;;10.02;6.90;;;17.20;99.90;;;;;;5047834;28;20056;-87
2023/06/28 09:00:37;;;;;;;9.32;6.80;;;17.20;99.90;;;;;;5051189;28;20053;-89
2023/06/28 09:03:03;;;;;;;8.45;6.53;;;17.20;99.90;;;;;;5040832;28;20169;-88
2023/06/28 09:05:30;;;;;;;11.00;7.03;;;17.40;99.90;;;;;;5049771;28;20124;-87
2023/06/28 09:07:58;;;;;;;11.23;6.93;;;17.70;99.90;;;;;;5054495;28;20127;-88
2023/06/28 09:10:24;;;;;;;8.63;6.88;;;17.40;99.90;;;;;;5053629;28;20495;-87
2023/06/28 09:12:50;;;;;;;10.38;7.72;;;17.40;99.90;;;;;;5071182;28;20090;-85
2023/06/28 09:15:22;;;;;;;13.77;8.45;;;17.80;99.90;;;;;;5061328;28;20502;-86
2023/06/28 09:17:47;;;;;;;;;;;17.50;99.90;;;;;;5068407;28;20126;-85
2023/06/28 09:20:21;;;;;;;12.55;7.75;;;17.30;99.90;;;;;;5068079;28;20001;-85
2023/06/28 09:22:59;;;;;;;11.25;8.00;;;17.40;99.90;;;;;;5070807;28;20048;-85
2023/06/28 09:25:27;;;;;;;10.90;8.25;;;17.60;99.90;;;;;;5052952;28;20377;-84
2023/06/28 09:27:55;;;;;;;10.65;7.88;;;17.60;99.90;;;;;;5069858;28;20036;-85
2023/06/28 09:30:21;;;;;;;9.95;8.63;;;17.60;99.90;;;;;;5068943;28;20075;-85
2023/06/28 09:32:51;;;;;;;13.43;8.85;;;17.60;99.90;;;;;;5069730;28;20635;-85
2023/06/28 09:35:21;;;;;;;14.52;9.25;;;17.70;99.90;;;;;;5068852;28;20075;-85
2023/06/28 09:37:54;;;;;;;16.77;9.32;;;17.70;99.90;;;;;;5069538;28;20056;-85
2023/06/28 09:40:20;;;;;;;13.02;8.68;;;17.70;99.90;;;;;;5069702;28;20036;-84
2023/06/28 09:42:50;;;;;;;12.10;9.45;;;18.10;99.90;;;;;;5069602;28;20424;-84
2023/06/28 09:45:30;;;;;;;16.27;9.65;;;17.80;99.90;;;;;;5047497;28;20037;-84
2023/06/28 09:47:58;;;;;;;12.10;9.05;;;17.90;99.90;;;;;;5050664;28;20048;-85
2023/06/28 09:50:46;;;;;;;13.02;9.57;;;18.00;99.90;;;;;;5051642;28;20048;-86
2023/06/28 09:53:19;;;;;;;14.25;9.68;;;18.00;99.90;;;;;;5062863;28;20041;-86
2023/06/28 09:55:52;;;;;;;12.38;8.73;;;17.90;99.90;;;;;;5057565;28;20037;-85
2023/06/28 09:58:19;;;;;;;14.30;9.57;;;18.00;99.90;;;;;;5051913;28;20091;-86
2023/06/28 10:00:47;;;;;;;12.85;9.00;;;18.00;99.90;;;;;;5065451;28;20158;-86
2023/06/28 10:03:14;;;;;;;13.30;8.68;;;17.90;99.90;;;;;;5052577;28;20110;-86
2023/06/28 10:05:42;;;;;;;14.45;9.30;;;17.90;99.90;;;;;;5068063;28;20051;-87
2023/06/28 10:08:15;;;;;;;11.88;9.30;;;18.10;99.90;;;;;;5068740;28;20561;-86
2023/06/28 10:10:42;;;;;;;13.93;9.23;;;17.80;99.90;;;;;;5067973;28;20044;-86
2023/06/28 10:13:19;;;;;;;14.13;9.68;;;17.90;99.90;;;;;;5068651;28;20053;-87
2023/06/28 10:15:55;;;;;;;13.57;9.27;;;17.70;99.90;;;;;;5046393;28;20073;-88
2023/06/28 10:18:23;;;;;;;12.93;8.98;;;17.80;99.90;;;;;;5047933;28;20048;-86
2023/06/28 10:20:49;;;;;;;12.75;9.18;;;17.90;99.90;;;;;;5066355;28;20512;-87
2023/06/28 10:23:17;;;;;;;13.27;9.60;;;17.80;99.90;;;;;;5032464;28;20147;-85
2023/06/28 10:25:45;;;;;;;12.73;9.55;;;17.90;99.90;;;;;;5061650;28;20131;-85
2023/06/28 10:28:13;;;;;;;12.07;8.48;;;17.80;99.90;;;;;;5067447;28;20048;-85
2023/06/28 10:30:40;;;;;;;12.20;9.30;;;18.10;99.90;;;;;;5069809;28;20109;-87
2023/06/28 10:33:06;;;;;;;14.13;9.90;;;17.90;99.90;;;;;;5068337;28;20124;-88
2023/06/28 10:35:32;;;;;;;12.05;8.98;;;18.00;99.90;;;;;;5068506;28;20780;-87
2023/06/28 10:37:59;;;;;;;12.23;9.77;;;18.00;99.90;;;;;;5067401;28;20131;-87
2023/06/28 10:40:28;;;;;;;13.85;10.20;;;18.00;99.90;;;;;;5051121;28;20271;-87
2023/06/28 10:42:54;;;;;;;15.52;9.27;;;18.00;99.90;;;;;;5049801;28;20167;-85
2023/06/28 10:45:33;;;;;;;13.20;9.68;;;17.90;99.90;;;;;;5055432;28;20136;-87
2023/06/28 10:48:00;;;;;;;12.57;9.80;;;18.10;99.90;;;;;;5068621;28;20048;-86
2023/06/28 10:50:26;;;;;;;11.52;9.70;;;18.00;99.90;;;;;;5070364;28;20815;-87
2023/06/28 10:52:56;;;;;;;14.73;9.68;;;18.00;99.90;;;;;;5069661;28;20102;-87
2023/06/28 10:55:32;;;;;;;13.45;9.88;;;18.30;99.90;;;;;;5068694;28;20135;-87
2023/06/28 10:58:10;;;;;;;10.63;9.52;;;18.20;99.90;;;;;;5069183;28;20515;-87
2023/06/28 11:00:40;;;;;;;15.23;10.25;;;18.40;99.90;;;;;;5068785;28;20471;-88
2023/06/28 11:03:07;;;;;;;12.77;10.13;;;18.20;99.90;;;;;;5053311;28;20075;-89
2023/06/28 11:05:53;;;;;;;11.32;9.65;;;18.20;99.90;;;;;;5050256;28;20046;-85
2023/06/28 11:08:20;;;;;;;11.20;9.48;;;18.20;99.90;;;;;;5070900;28;20115;-90
2023/06/28 11:10:58;;;;;;;13.35;9.70;;;17.90;99.90;;;;;;5052112;28;20120;-87
2023/06/28 11:13:39;;;;;;;11.13;9.40;;;18.20;99.90;;;;;;5068191;28;20093;-87
2023/06/28 11:16:10;;;;;;;11.18;9.93;;;18.20;99.90;;;;;;5050938;28;20527;-87
2023/06/28 11:18:37;;;;;;;10.68;9.32;;;18.40;99.90;;;;;;5051019;28;20621;-88
2023/06/28 11:21:04;;;;;;;12.23;9.70;;;18.40;99.90;;;;;;5050803;28;20063;-87
2023/06/28 11:23:35;;;;;;;11.30;9.55;;;18.40;99.90;;;;;;5051395;28;20056;-88
2023/06/28 11:26:02;;;;;;;10.02;9.00;;;18.40;99.90;;;;;;5067831;28;20097;-87
2023/06/28 11:28:46;;;;;;;12.18;9.90;;;18.50;99.90;;;;;;5050651;28;20489;-84
2023/06/28 11:31:11;;;;;;;9.98;8.88;;;18.50;99.90;;;;;;5047132;28;20432;-84
2023/06/28 11:33:37;;;;;;;11.02;10.02;;;18.60;99.90;;;;;;5050075;28;20048;-88
2023/06/28 11:36:04;;;;;;;11.20;10.05;;;18.70;99.90;;;;;;5050923;28;20139;-86
2023/06/28 11:38:32;;;;;;;11.27;9.50;;;18.70;99.90;;;;;;5057014;28;20071;-89
2023/06/28 11:40:58;;;;;;;11.38;9.90;;;18.80;99.90;;;;;;5056050;28;20523;-88
2023/06/28 11:43:24;;;;;;;10.70;9.57;;;19.00;99.90;;;;;;5052844;28;20051;-90
2023/06/28 11:45:50;;;;;;;10.75;9.00;;;19.00;99.90;;;;;;5052645;28;20052;-89
2023/06/28 11:48:17;;;;;;;11.00;9.90;;;19.00;99.90;;;;;;5050348;28;20048;-90
2023/06/28 11:50:43;;;;;;;12.05;9.45;;;19.20;99.90;;;;;;5050683;28;20056;-88
2023/06/28 11:53:09;;;;;;;11.57;10.30;;;19.10;99.90;;;;;;5068046;28;20051;-90
2023/06/28 11:55:35;;;;;;;10.18;9.20;;;19.10;99.90;;;;;;5053133;28;20072;-88
2023/06/28 11:58:01;;;;;;;12.23;10.38;;;19.20;99.90;;;;;;5069210;28;20416;-88
2023/06/28 12:00:40;;;;;;;11.10;10.00;;;19.20;99.90;;;;;;5053090;28;20052;-88
2023/06/28 12:03:06;;;;;;;12.95;11.30;;;19.10;99.90;;;;;;5054278;28;20052;-88
2023/06/28 12:05:34;;;;;;;12.23;11.02;;;19.10;99.90;;;;;;5049907;28;20044;-91
2023/06/28 12:08:00;;;;;;;12.52;10.85;;;19.20;99.90;;;;;;5069692;28;20057;-89
2023/06/28 12:10:33;;;;;;;12.70;11.40;;;19.00;99.90;;;;;;5052912;28;20037;-89
2023/06/28 12:12:59;;;;;;;11.98;10.77;;;19.10;99.90;;;;;;5052892;28;20048;-89
2023/06/28 12:15:24;;;;;;;14.00;11.00;;;19.00;99.90;;;;;;5069504;28;20036;-90
2023/06/28 12:17:50;;;;;;;13.05;11.73;;;18.90;99.90;;;;;;5068389;28;20082;-88
2023/06/28 12:20:16;;;;;;;12.15;10.88;;;18.90;99.90;;;;;;5067331;28;20480;-90
2023/06/28 12:22:45;;;;;;;14.02;11.27;;;19.00;99.90;;;;;;5068001;28;20106;-88
2023/06/28 12:25:12;;;;;;;13.75;12.35;;;18.80;99.90;;;;;;5068040;28;20504;-87
2023/06/28 12:27:41;;;;;;;16.10;12.63;;;19.00;99.90;;;;;;5052288;28;20061;-90
2023/06/28 12:30:11;;;;;;;16.35;12.82;;;18.60;99.90;;;;;;5069030;28;20052;-88
2023/06/28 12:32:47;;;;;;;14.93;13.35;;;18.80;99.90;;;;;;5050790;28;20064;-87
2023/06/28 12:35:24;;;;;;;15.02;12.13;;;19.00;99.90;;;;;;5058159;28;20071;-88
2023/06/28 12:37:57;;;;;;;14.23;12.25;;;19.20;99.90;;;;;;5072243;28;20401;-88
2023/06/28 12:40:28;;;;;;;15.88;13.23;;;19.50;99.90;;;;;;5071161;28;20045;-88
2023/06/28 12:43:17;;;;;;;15.33;11.93;;;19.50;99.90;;;;;;5056768;28;20389;-87